Time;durP1;ratioP1;P1;durP2;ratioP2;P2;SDS_P1;SDS_P2;PMS_P1;PMS_P2;Temp;Humidity;BMP_temperature;BMP_pressure;BME280_temperature;BME280_humidity;BME280_pressure;Samples;Min_cycle;Max_cycle;Signal;HPM_P1;HPM_P2
2022/07/28 00:00:35;;;;;;;4.40;1.57;;;;;;;13.71;100.00;102061.44;2614954;36;20065;-48
2022/07/28 00:03:04;;;;;;;4.57;1.60;;;;;;;13.73;100.00;102064.84;2614305;36;20064;-52
2022/07/28 00:05:32;;;;;;;2.95;1.63;;;;;;;13.75;100.00;102054.75;2615220;36;20023;-48
2022/07/28 00:08:00;;;;;;;3.50;1.80;;;;;;;13.70;100.00;102057.00;2615363;36;20034;-49
2022/07/28 00:10:31;;;;;;;2.92;1.48;;;;;;;13.72;100.00;102055.88;2614927;31;20022;-50
2022/07/28 00:13:00;;;;;;;4.70;1.50;;;;;;;13.74;100.00;102063.88;2614885;36;20038;-48
2022/07/28 00:15:29;;;;;;;4.75;1.95;;;;;;;13.63;100.00;102060.22;2615146;36;20030;-50
2022/07/28 00:17:57;;;;;;;5.97;3.00;;;;;;;13.69;100.00;102058.81;2614252;31;20062;-49
2022/07/28 00:20:26;;;;;;;3.40;1.92;;;;;;;13.72;100.00;102060.41;2614250;31;20848;-52
2022/07/28 00:22:55;;;;;;;;;;;;;;;13.67;100.00;102056.25;2615324;36;20069;-49
2022/07/28 00:25:23;;;;;;;4.23;1.63;;;;;;;13.66;100.00;102062.66;2615620;31;19942;-50
2022/07/28 00:27:54;;;;;;;2.67;1.60;;;;;;;13.65;100.00;102060.94;2615050;31;20057;-48
2022/07/28 00:30:22;;;;;;;4.00;1.83;;;;;;;13.72;100.00;102049.59;2615748;31;20093;-50
2022/07/28 00:32:50;;;;;;;2.63;1.70;;;;;;;13.73;100.00;102054.03;2615020;36;20440;-51
2022/07/28 00:35:19;;;;;;;4.13;1.90;;;;;;;13.61;100.00;102056.75;2614636;36;20035;-49
2022/07/28 00:37:47;;;;;;;2.20;1.60;;;;;;;13.59;100.00;102052.44;2615261;36;20042;-50
2022/07/28 00:40:15;;;;;;;5.88;1.90;;;;;;;13.58;100.00;102051.59;2614653;36;20039;-47
2022/07/28 00:42:44;;;;;;;2.90;1.67;;;;;;;13.55;100.00;102042.91;2614592;36;20046;-51
2022/07/28 00:45:15;;;;;;;2.73;1.70;;;;;;;13.60;100.00;102041.53;2614729;36;20555;-48
2022/07/28 00:47:43;;;;;;;5.18;1.77;;;;;;;13.64;100.00;102052.94;2614920;36;20303;-51
2022/07/28 00:50:12;;;;;;;3.20;1.80;;;;;;;13.56;100.00;102045.47;2614265;36;20034;-51
2022/07/28 00:52:40;;;;;;;5.95;3.13;;;;;;;13.53;100.00;102040.31;2615332;36;20061;-49
2022/07/28 00:55:09;;;;;;;2.45;1.88;;;;;;;13.50;100.00;102051.41;2615993;31;20491;-49
2022/07/28 00:57:37;;;;;;;3.17;2.05;;;;;;;13.43;100.00;102044.75;2615454;36;20022;-48
2022/07/28 01:00:07;;;;;;;3.42;2.03;;;;;;;13.43;100.00;102044.75;2614024;36;20039;-49
2022/07/28 01:02:38;;;;;;;7.28;2.60;;;;;;;13.41;100.00;102044.88;2614650;36;20030;-49
2022/07/28 01:05:07;;;;;;;5.10;2.03;;;;;;;13.27;100.00;102045.13;2614912;36;20797;-51
2022/07/28 01:07:43;;;;;;;2.97;2.10;;;;;;;13.30;100.00;102040.31;2615434;36;20126;-50
2022/07/28 01:10:18;;;;;;;5.28;1.80;;;;;;;13.27;100.00;102032.44;2615365;31;20038;-49
2022/07/28 01:12:52;;;;;;;3.20;1.98;;;;;;;13.12;100.00;102033.72;2615023;36;20030;-52
2022/07/28 01:15:26;;;;;;;4.63;1.80;;;;;;;13.12;100.00;102026.44;2615133;31;20031;-49
2022/07/28 01:18:04;;;;;;;4.13;1.90;;;;;;;13.05;100.00;102029.78;2614937;36;20042;-50
2022/07/28 01:20:38;;;;;;;3.40;2.10;;;;;;;13.08;100.00;102030.38;2615264;36;20034;-50
2022/07/28 01:23:35;;;;;;;4.43;1.92;;;;;;;13.03;100.00;102029.91;2615263;36;20030;-48
2022/07/28 01:26:20;;;;;;;2.97;1.70;;;;;;;12.93;100.00;102024.38;2615043;36;20054;-48
2022/07/28 01:29:04;;;;;;;7.35;1.77;;;;;;;12.85;100.00;102018.69;2615413;36;20049;-48
2022/07/28 01:31:40;;;;;;;2.88;1.60;;;;;;;12.79;100.00;102019.19;2614234;36;20155;-47
2022/07/28 01:34:12;;;;;;;3.30;1.67;;;;;;;12.77;100.00;102021.19;2615433;36;20038;-50
2022/07/28 01:36:45;;;;;;;3.60;1.67;;;;;;;12.80;100.00;102015.53;2614578;36;20046;-47
2022/07/28 01:39:15;;;;;;;3.25;1.88;;;;;;;12.75;100.00;102012.31;2615619;36;20590;-49
2022/07/28 01:41:46;;;;;;;3.30;1.70;;;;;;;12.72;100.00;102017.97;2614728;36;20073;-50
2022/07/28 01:44:20;;;;;;;4.55;1.50;;;;;;;12.75;100.00;102012.31;2615100;36;20070;-53
2022/07/28 01:46:53;;;;;;;3.78;1.67;;;;;;;12.75;100.00;102006.91;2613817;36;20646;-50
2022/07/28 01:49:24;;;;;;;2.70;1.67;;;;;;;12.73;100.00;102004.34;2615131;36;20038;-45
2022/07/28 01:51:53;;;;;;;4.55;1.75;;;;;;;12.62;100.00;102007.91;2614850;36;20058;-49
2022/07/28 01:54:27;;;;;;;3.80;1.60;;;;;;;12.53;100.00;102008.63;2615027;36;20031;-51
2022/07/28 01:56:57;;;;;;;2.97;2.50;;;;;;;12.48;100.00;102013.53;2615018;36;20538;-47
2022/07/28 01:59:29;;;;;;;3.58;1.70;;;;;;;12.44;100.00;102003.97;2615516;36;20364;-51
2022/07/28 02:02:01;;;;;;;2.90;1.50;;;;;;;12.38;100.00;101999.00;2614342;36;20030;-48
2022/07/28 02:04:31;;;;;;;2.72;1.30;;;;;;;12.33;100.00;102006.63;2615145;36;20039;-49
2022/07/28 02:07:02;;;;;;;5.05;1.85;;;;;;;12.33;100.00;102001.22;2614534;36;20023;-52
2022/07/28 02:09:32;;;;;;;2.10;1.40;;;;;;;12.29;100.00;101997.91;2615286;36;20030;-52
2022/07/28 02:12:02;;;;;;;3.25;1.58;;;;;;;12.22;100.00;101989.44;2614637;36;20035;-49
2022/07/28 02:14:31;;;;;;;3.20;1.70;;;;;;;12.33;100.00;101990.44;2615304;36;20043;-50
2022/07/28 02:17:06;;;;;;;3.95;1.58;;;;;;;12.27;100.00;101992.63;2614028;36;20045;-49
2022/07/28 02:19:37;;;;;;;3.25;1.63;;;;;;;12.26;100.00;101982.81;2615085;36;20027;-52
2022/07/28 02:22:06;;;;;;;3.28;1.80;;;;;;;12.16;100.00;101986.34;2615191;31;20022;-47
2022/07/28 02:24:36;;;;;;;3.35;1.50;;;;;;;12.18;100.00;101985.25;2615420;36;20041;-47
2022/07/28 02:27:11;;;;;;;1.92;1.20;;;;;;;12.17;100.00;101991.59;2614632;36;20030;-50
2022/07/28 02:29:45;;;;;;;2.97;1.25;;;;;;;12.12;100.00;101980.31;2615167;36;20066;-48
2022/07/28 02:32:21;;;;;;;2.15;1.30;;;;;;;12.14;100.00;101991.84;2613954;36;20042;-49
2022/07/28 02:34:52;;;;;;;3.22;1.23;;;;;;;12.06;100.00;101981.66;2614932;36;20046;-50
2022/07/28 02:37:20;;;;;;;2.22;1.38;;;;;;;12.06;100.00;101981.66;2614837;36;20585;-50
2022/07/28 02:39:54;;;;;;;3.20;1.50;;;;;;;12.03;100.00;101984.59;2615302;36;20062;-50
2022/07/28 02:42:28;;;;;;;2.47;1.10;;;;;;;12.04;100.00;101985.44;2615912;31;20058;-48
2022/07/28 02:44:59;;;;;;;4.25;1.45;;;;;;;12.02;100.00;101976.63;2615617;31;20075;-48
2022/07/28 02:47:36;;;;;;;4.70;1.63;;;;;;;12.03;100.00;101991.84;2615138;36;20041;-49
2022/07/28 02:50:07;;;;;;;2.92;1.50;;;;;;;12.06;100.00;101986.22;2615440;36;20546;-47
2022/07/28 02:52:37;;;;;;;2.25;1.38;;;;;;;12.06;100.00;101992.44;2616068;36;20483;-47
2022/07/28 02:55:07;;;;;;;2.08;1.30;;;;;;;12.02;100.00;101992.81;2615957;36;20447;-47
2022/07/28 02:57:36;;;;;;;1.80;1.25;;;;;;;12.04;100.00;101990.84;2615788;36;20038;-47
2022/07/28 03:00:06;;;;;;;3.30;1.13;;;;;;;12.06;100.00;101994.31;2615854;36;20515;-48
2022/07/28 03:02:38;;;;;;;1.50;1.27;;;;;;;12.08;100.00;101987.78;2614980;36;20057;-47
2022/07/28 03:05:08;;;;;;;3.83;1.27;;;;;;;12.09;100.00;101991.38;2615376;36;20041;-52
2022/07/28 03:07:36;;;;;;;1.50;1.20;;;;;;;12.08;100.00;101981.53;2615612;31;20045;-50
2022/07/28 03:10:06;;;;;;;3.03;1.60;;;;;;;12.14;100.00;101997.25;2614962;36;20037;-49
2022/07/28 03:12:34;;;;;;;2.28;1.38;;;;;;;12.17;100.00;101990.75;2615232;36;20039;-48
2022/07/28 03:15:03;;;;;;;1.50;1.20;;;;;;;12.24;100.00;101992.84;2616171;36;20626;-49
2022/07/28 03:17:31;;;;;;;3.20;1.35;;;;;;;12.32;100.00;101988.69;2614959;31;20105;-49
2022/07/28 03:20:02;;;;;;;2.08;1.42;;;;;;;12.31;100.00;101984.28;2615449;36;20070;-48
2022/07/28 03:22:30;;;;;;;3.58;1.30;;;;;;;12.27;100.00;101989.06;2615960;36;20129;-48
2022/07/28 03:25:01;;;;;;;4.77;1.40;;;;;;;12.35;100.00;101991.16;2615674;36;20027;-50
2022/07/28 03:27:32;;;;;;;3.13;1.52;;;;;;;12.30;100.00;101994.22;2615451;36;20129;-48
2022/07/28 03:30:04;;;;;;;2.28;1.23;;;;;;;12.29;100.00;102000.59;2615536;31;20041;-50
2022/07/28 03:32:36;;;;;;;1.88;1.40;;;;;;;12.28;100.00;102001.59;2615445;31;20105;-47
2022/07/28 03:35:07;;;;;;;1.85;1.20;;;;;;;12.25;100.00;101997.28;2615068;36;20035;-48
2022/07/28 03:37:41;;;;;;;2.42;1.20;;;;;;;12.22;100.00;102002.94;2615891;36;20420;-48
2022/07/28 03:40:12;;;;;;;4.15;1.50;;;;;;;12.23;100.00;101996.56;2615339;36;20057;-47
2022/07/28 03:42:43;;;;;;;3.03;1.50;;;;;;;12.15;100.00;102001.69;2614903;36;20034;-48
2022/07/28 03:45:13;;;;;;;7.55;1.75;;;;;;;12.14;100.00;102009.91;2616080;36;20428;-47
2022/07/28 03:47:51;;;;;;;3.63;1.80;;;;;;;12.12;100.00;102001.03;2615098;36;20038;-51
2022/07/28 03:50:23;;;;;;;4.30;1.77;;;;;;;12.23;100.00;102007.34;2615297;36;20549;-50
2022/07/28 03:52:52;;;;;;;2.22;1.35;;;;;;;12.26;100.00;102007.13;2615305;36;20560;-47
2022/07/28 03:55:21;;;;;;;2.28;1.40;;;;;;;12.20;100.00;102007.56;2615283;36;20039;-52
2022/07/28 03:57:49;;;;;;;5.82;2.47;;;;;;;12.21;100.00;102014.69;2615126;36;20034;-48
2022/07/28 04:00:19;;;;;;;2.75;1.67;;;;;;;12.28;100.00;102017.78;2615780;31;20455;-48
2022/07/28 04:02:48;;;;;;;4.93;1.40;;;;;;;12.35;100.00;102015.47;2614968;36;20568;-51
2022/07/28 04:05:18;;;;;;;3.95;1.75;;;;;;;12.30;100.00;102018.53;2614289;36;20424;-50
2022/07/28 04:07:49;;;;;;;2.47;1.67;;;;;;;12.26;100.00;102012.50;2614939;36;20383;-50
2022/07/28 04:10:19;;;;;;;4.22;1.98;;;;;;;12.27;100.00;102014.22;2615498;36;20038;-48
2022/07/28 04:12:51;;;;;;;3.90;1.98;;;;;;;12.36;100.00;102022.59;2614537;36;20065;-48
2022/07/28 04:15:20;;;;;;;6.75;1.45;;;;;;;12.46;100.00;102020.03;2615304;36;20034;-50
2022/07/28 04:17:50;;;;;;;4.70;2.05;;;;;;;12.39;100.00;102016.94;2615057;31;20030;-50
2022/07/28 04:20:19;;;;;;;2.92;1.60;;;;;;;12.41;100.00;102009.56;2615029;36;20042;-47
2022/07/28 04:22:51;;;;;;;2.75;1.80;;;;;;;12.43;100.00;102019.28;2615594;36;20034;-48
2022/07/28 04:25:21;;;;;;;4.45;2.28;;;;;;;12.48;100.00;102012.66;2615751;31;20412;-47
2022/07/28 04:27:49;;;;;;;;;;;;;;;12.51;100.00;102010.56;2615557;31;20527;-49
2022/07/28 04:30:20;;;;;;;3.80;1.98;;;;;;;12.66;100.00;102010.34;2615279;36;19975;-49
2022/07/28 04:32:50;;;;;;;4.55;2.42;;;;;;;12.73;100.00;102017.00;2614712;36;20034;-49
2022/07/28 04:35:19;;;;;;;3.40;1.67;;;;;;;12.73;100.00;102014.28;2615012;36;20063;-52
2022/07/28 04:37:50;;;;;;;4.05;1.80;;;;;;;12.76;100.00;102014.94;2615295;36;20590;-50
2022/07/28 04:40:18;;;;;;;3.95;1.70;;;;;;;12.84;100.00;102022.41;2614882;36;20533;-51
2022/07/28 04:42:47;;;;;;;2.05;1.58;;;;;;;12.89;100.00;102014.78;2615015;36;20042;-50
2022/07/28 04:45:15;;;;;;;3.63;1.48;;;;;;;13.01;100.00;102020.19;2615757;36;20463;-48
2022/07/28 04:47:44;;;;;;;5.20;1.83;;;;;;;13.05;100.00;102018.97;2615064;36;20412;-50
2022/07/28 04:50:16;;;;;;;2.15;1.52;;;;;;;13.10;100.00;102025.72;2614823;36;20077;-49
2022/07/28 04:52:47;;;;;;;5.25;1.70;;;;;;;13.07;100.00;102022.41;2615803;36;20415;-48
2022/07/28 04:55:18;;;;;;;3.42;2.03;;;;;;;13.00;100.00;102015.75;2615183;36;20039;-51
2022/07/28 04:57:47;;;;;;;3.20;1.55;;;;;;;13.02;100.00;102019.22;2614974;36;20038;-47
2022/07/28 05:00:16;;;;;;;4.28;2.17;;;;;;;13.22;100.00;102033.81;2615312;36;20451;-50
2022/07/28 05:02:46;;;;;;;4.28;1.95;;;;;;;13.23;100.00;102027.41;2614709;36;20459;-50
2022/07/28 05:05:15;;;;;;;4.10;1.80;;;;;;;13.27;100.00;102018.09;2615225;36;20038;-51
2022/07/28 05:07:43;;;;;;;5.65;2.00;;;;;;;13.38;100.00;102019.94;2615153;36;20476;-52
2022/07/28 05:10:13;;;;;;;6.57;2.08;;;;;;;13.30;100.00;102012.41;2615770;36;20435;-46
2022/07/28 05:12:46;;;;;;;2.35;1.60;;;;;;;13.35;100.00;102021.03;2615268;31;20072;-50
2022/07/28 05:15:14;;;;;;;3.40;2.25;;;;;;;13.29;100.00;102016.09;2614957;36;20046;-51
2022/07/28 05:17:42;;;;;;;3.00;1.90;;;;;;;13.31;100.00;102019.56;2614071;36;20039;-51
2022/07/28 05:20:12;;;;;;;3.60;1.70;;;;;;;13.29;100.00;102021.50;2614913;31;20035;-50
2022/07/28 05:22:45;;;;;;;2.70;1.90;;;;;;;13.27;100.00;102021.63;2615045;36;20026;-50
2022/07/28 05:25:18;;;;;;;4.38;1.70;;;;;;;13.21;100.00;102027.53;2614947;36;20847;-49
2022/07/28 05:27:50;;;;;;;3.88;1.60;;;;;;;13.26;100.00;102017.19;2615009;36;20064;-48
2022/07/28 05:30:20;;;;;;;4.80;2.42;;;;;;;13.23;100.00;102017.47;2614906;36;20574;-52
2022/07/28 05:32:49;;;;;;;4.72;3.15;;;;;;;13.24;100.00;102021.88;2615174;36;20035;-48
2022/07/28 05:35:17;;;;;;;;;;;;;;;13.28;100.00;102025.19;2614786;36;20533;-51
2022/07/28 05:37:45;;;;;;;3.95;2.15;;;;;;;13.30;100.00;102021.38;2614990;36;19950;-49
2022/07/28 05:40:17;;;;;;;2.17;1.80;;;;;;;13.33;100.00;102023.84;2614398;31;20026;-53
2022/07/28 05:42:46;;;;;;;4.25;1.90;;;;;;;13.40;100.00;102026.94;2615077;36;20129;-52
2022/07/28 05:45:17;;;;;;;3.10;1.80;;;;;;;13.40;100.00;102029.63;2615060;36;20057;-53
2022/07/28 05:47:46;;;;;;;3.58;1.80;;;;;;;13.67;100.00;102034.59;2615303;36;20433;-53
2022/07/28 05:50:15;;;;;;;;;;;;;;;13.76;100.00;102027.56;2614334;31;20031;-50
2022/07/28 05:52:44;;;;;;;4.10;1.92;;;;;;;13.62;100.00;102033.28;2615114;36;19950;-52
2022/07/28 05:55:13;;;;;;;3.10;1.55;;;;;;;13.78;100.00;102038.25;2615018;36;20069;-51
2022/07/28 05:57:42;;;;;;;;;;;;;;;13.82;100.00;102034.31;2614959;36;20544;-51
2022/07/28 06:00:12;;;;;;;7.50;1.90;;;;;;;13.99;100.00;102024.78;2615043;36;19971;-50
2022/07/28 06:02:47;;;;;;;4.28;1.48;;;;;;;14.15;100.00;102024.34;2613871;36;20843;-48
2022/07/28 06:05:16;;;;;;;3.53;1.70;;;;;;;14.21;100.00;102029.22;2615341;31;20504;-46
2022/07/28 06:07:45;;;;;;;2.00;1.33;;;;;;;14.29;100.00;102021.28;2615008;36;20428;-49
2022/07/28 06:10:14;;;;;;;5.67;1.70;;;;;;;14.43;100.00;102019.22;2615034;36;20061;-49
2022/07/28 06:12:42;;;;;;;;;;;;;;;14.51;100.00;102014.88;2615194;36;20328;-51
2022/07/28 06:15:14;;;;;;;5.60;1.40;;;;;;;14.69;100.00;102020.59;2615632;36;19951;-49
2022/07/28 06:17:45;;;;;;;1.83;1.20;;;;;;;14.78;100.00;102018.91;2615132;36;20032;-47
2022/07/28 06:20:15;;;;;;;5.65;1.42;;;;;;;15.06;100.00;102021.88;2615009;36;20027;-53
2022/07/28 06:22:45;;;;;;;3.65;1.80;;;;;;;15.12;100.00;102020.47;2615890;36;20034;-54
2022/07/28 06:25:15;;;;;;;3.38;1.55;;;;;;;15.29;100.00;102017.09;2615750;36;20038;-50
2022/07/28 06:27:44;;;;;;;3.53;1.27;;;;;;;15.41;100.00;102021.44;2615972;36;20045;-51
2022/07/28 06:30:13;;;;;;;4.32;1.38;;;;;;;15.57;100.00;102028.16;2614822;31;20083;-53
2022/07/28 06:32:44;;;;;;;3.20;1.65;;;;;;;15.78;100.00;102028.06;2615197;31;20038;-47
2022/07/28 06:35:17;;;;;;;2.05;0.95;;;;;;;15.69;100.00;102031.59;2615012;31;20038;-48
2022/07/28 06:37:46;;;;;;;2.97;1.27;;;;;;;15.84;100.00;102024.78;2615297;36;20038;-49
2022/07/28 06:40:15;;;;;;;2.95;1.20;;;;;;;15.97;100.00;102024.50;2615305;36;20401;-50
2022/07/28 06:42:44;;;;;;;5.80;1.50;;;;;;;16.19;100.00;102014.34;2615599;36;20035;-53
2022/07/28 06:45:15;;;;;;;4.10;1.38;;;;;;;16.58;100.00;102017.00;2615698;36;20623;-52
2022/07/28 06:47:46;;;;;;;2.15;1.00;;;;;;;16.79;100.00;102014.91;2614899;36;20034;-54
2022/07/28 06:50:14;;;;;;;3.53;1.30;;;;;;;17.00;100.00;102019.28;2615182;36;20047;-51
2022/07/28 06:52:42;;;;;;;3.90;1.07;;;;;;;17.23;100.00;102016.19;2615645;36;20027;-53
2022/07/28 06:55:14;;;;;;;3.15;1.10;;;;;;;17.13;100.00;102011.63;2615893;31;20038;-49
2022/07/28 06:57:43;;;;;;;3.10;1.10;;;;;;;17.07;100.00;102011.38;2615034;36;20030;-51
2022/07/28 07:00:13;;;;;;;1.60;1.00;;;;;;;17.13;100.00;102013.50;2615994;31;20489;-48
2022/07/28 07:02:42;;;;;;;4.32;0.90;;;;;;;17.27;100.00;102012.13;2615666;31;20443;-52
2022/07/28 07:05:14;;;;;;;3.67;0.90;;;;;;;17.26;100.00;102022.16;2616271;31;20492;-51
2022/07/28 07:07:42;;;;;;;5.13;0.85;;;;;;;17.26;100.00;102005.00;2615252;36;20587;-51
2022/07/28 07:10:11;;;;;;;1.90;0.83;;;;;;;17.35;100.00;102004.06;2615732;31;20050;-49
2022/07/28 07:12:40;;;;;;;1.55;0.90;;;;;;;17.58;100.00;102011.78;2615616;36;20054;-51
2022/07/28 07:15:10;;;;;;;2.05;1.00;;;;;;;17.47;100.00;102005.56;2616897;31;20082;-48
2022/07/28 07:17:38;;;;;;;4.72;0.80;;;;;;;17.57;100.00;102002.78;2615419;36;20419;-51
2022/07/28 07:20:09;;;;;;;1.42;0.80;;;;;;;17.56;100.00;102000.22;2615842;36;20034;-53
2022/07/28 07:22:44;;;;;;;5.57;0.70;;;;;;;17.79;100.00;102009.63;2615319;36;20050;-50
2022/07/28 07:25:14;;;;;;;3.13;1.00;;;;;;;17.86;100.00;102008.00;2615395;36;20080;-48
2022/07/28 07:27:42;;;;;;;2.40;0.80;;;;;;;17.65;100.00;102013.75;2615479;36;20039;-52
2022/07/28 07:30:12;;;;;;;3.20;0.93;;;;;;;17.38;100.00;102006.47;2615398;36;20038;-46
2022/07/28 07:32:41;;;;;;;2.30;0.90;;;;;;;17.48;100.00;102001.84;2615151;36;20030;-49
2022/07/28 07:35:11;;;;;;;1.25;0.90;;;;;;;17.70;100.00;102002.41;2615820;31;20038;-50
2022/07/28 07:37:42;;;;;;;1.60;0.98;;;;;;;17.94;100.00;102003.66;2615608;36;20031;-48
2022/07/28 07:40:11;;;;;;;2.40;1.15;;;;;;;17.98;100.00;102003.19;2615268;36;20077;-51
2022/07/28 07:42:39;;;;;;;1.98;0.90;;;;;;;18.38;100.00;101998.22;2615000;36;20034;-50
2022/07/28 07:45:08;;;;;;;4.13;0.97;;;;;;;18.29;100.00;102004.63;2615241;36;20027;-48
2022/07/28 07:47:37;;;;;;;2.53;1.00;;;;;;;18.09;100.00;102007.53;2614565;36;20034;-52
2022/07/28 07:50:06;;;;;;;4.15;0.82;;;;;;;18.38;100.00;101996.34;2614949;36;20035;-49
2022/07/28 07:52:34;;;;;;;1.95;0.82;;;;;;;18.51;100.00;101995.91;2615511;36;20069;-49
2022/07/28 07:55:06;;;;;;;2.57;1.13;;;;;;;18.63;100.00;101988.31;2615450;36;20081;-50
2022/07/28 07:57:34;;;;;;;3.38;1.20;;;;;;;18.71;100.00;101988.38;2615332;31;20353;-51
2022/07/28 08:00:03;;;;;;;2.45;1.00;;;;;;;18.53;100.00;101977.53;2615292;32;20034;-51
2022/07/28 08:02:31;;;;;;;1.70;0.93;;;;;;;18.45;100.00;101977.50;2615730;31;20034;-52
2022/07/28 08:05:00;;;;;;;1.40;0.80;;;;;;;18.76;100.00;101976.09;2615634;31;20035;-49
2022/07/28 08:07:28;;;;;;;;;;;;;;;18.85;100.00;101975.16;2615271;36;20031;-49
2022/07/28 08:09:56;;;;;;;1.88;0.80;;;;;;;18.81;100.00;101982.78;2615579;36;19983;-51
2022/07/28 08:12:27;;;;;;;0.93;0.70;;;;;;;18.81;100.00;101980.06;2614617;36;20062;-54
2022/07/28 08:14:56;;;;;;;1.33;0.77;;;;;;;19.18;100.00;101976.13;2615581;31;20844;-49
2022/07/28 08:17:25;;;;;;;1.25;0.80;;;;;;;19.21;100.00;101975.84;2614898;36;20058;-52
2022/07/28 08:19:53;;;;;;;1.00;0.73;;;;;;;19.61;100.00;101982.41;2615430;36;20042;-52
2022/07/28 08:22:21;;;;;;;1.65;0.70;;;;;;;19.70;100.00;101974.19;2614988;31;20030;-50
2022/07/28 08:24:50;;;;;;;4.72;0.98;;;;;;;19.41;100.00;101981.00;2615572;36;20031;-51
2022/07/28 08:27:18;;;;;;;1.67;0.80;;;;;;;19.16;100.00;101977.34;2615007;36;20073;-51
2022/07/28 08:29:49;;;;;;;2.05;0.90;;;;;;;19.18;99.20;101976.13;2615346;36;20041;-48
2022/07/28 08:32:17;;;;;;;1.17;0.70;;;;;;;19.12;100.00;101976.81;2614532;36;20080;-49
2022/07/28 08:34:45;;;;;;;1.67;0.82;;;;;;;18.90;99.77;101972.81;2615294;36;20034;-51
2022/07/28 08:37:14;;;;;;;1.92;0.90;;;;;;;18.97;99.11;101983.91;2614555;36;20038;-51
2022/07/28 08:39:42;;;;;;;2.20;0.80;;;;;;;19.11;97.13;101980.56;2615490;36;20034;-53
2022/07/28 08:42:16;;;;;;;2.70;2.40;;;;;;;19.25;98.16;101976.34;2615439;31;20038;-53
2022/07/28 08:44:55;;;;;;;1.98;0.90;;;;;;;19.50;100.00;101973.69;2614898;36;20316;-53
2022/07/28 08:47:24;;;;;;;2.47;0.88;;;;;;;19.40;93.22;101968.34;2614610;36;20058;-52
2022/07/28 08:49:55;;;;;;;2.00;0.90;;;;;;;19.85;85.04;101966.25;2615280;36;20061;-48
2022/07/28 08:52:26;;;;;;;2.60;0.75;;;;;;;19.91;98.05;101968.28;2614528;31;20059;-49
2022/07/28 08:54:57;;;;;;;2.28;0.80;;;;;;;20.29;87.64;101974.91;2615495;31;20038;-52
2022/07/28 08:57:32;;;;;;;1.70;0.80;;;;;;;20.74;89.61;101972.59;2615476;36;20042;-49
2022/07/28 09:00:03;;;;;;;0.77;0.77;;;;;;;20.62;82.57;101977.56;2615356;31;20038;-52
2022/07/28 09:02:34;;;;;;;1.65;0.80;;;;;;;20.81;80.19;101972.75;2614555;36;20117;-55
2022/07/28 09:05:05;;;;;;;2.97;0.80;;;;;;;20.88;78.43;101968.28;2615299;36;20038;-53
2022/07/28 09:07:36;;;;;;;2.38;1.00;;;;;;;20.78;71.80;101971.22;2615117;36;20034;-53
2022/07/28 09:10:05;;;;;;;1.10;0.80;;;;;;;20.35;74.58;101978.00;2615603;36;20128;-53
2022/07/28 09:12:35;;;;;;;2.22;0.90;;;;;;;20.28;77.89;101972.34;2614617;36;20073;-53
2022/07/28 09:15:07;;;;;;;2.25;0.80;;;;;;;20.46;78.33;101975.75;2615007;36;20565;-51
2022/07/28 09:17:36;;;;;;;1.48;0.82;;;;;;;20.42;82.06;101974.38;2614250;36;20059;-49
2022/07/28 09:20:06;;;;;;;3.35;0.90;;;;;;;20.11;78.68;101964.16;2614957;36;20174;-52
2022/07/28 09:22:34;;;;;;;1.25;0.80;;;;;;;20.18;79.49;101966.22;2614847;36;20054;-52
2022/07/28 09:25:03;;;;;;;1.08;0.70;;;;;;;20.25;88.42;101962.59;2615246;36;20035;-52
2022/07/28 09:27:45;;;;;;;1.90;0.80;;;;;;;20.60;80.08;101957.75;2614977;36;20031;-52
2022/07/28 09:30:16;;;;;;;2.47;0.90;;;;;;;20.93;72.69;101960.38;2614539;36;21006;-55
2022/07/28 09:32:47;;;;;;;1.77;0.80;;;;;;;21.05;69.16;101952.63;2615025;36;20031;-53
2022/07/28 09:35:21;;;;;;;1.63;0.73;;;;;;;21.16;85.08;101954.13;2614572;36;20055;-53
2022/07/28 09:38:00;;;;;;;3.85;0.82;;;;;;;21.55;71.78;101949.63;2614749;36;20034;-53
2022/07/28 09:40:29;;;;;;;1.00;0.77;;;;;;;21.49;72.96;101948.44;2614926;36;20031;-52
2022/07/28 09:42:57;;;;;;;1.55;0.77;;;;;;;21.56;70.67;101943.97;2615130;36;20043;-52
2022/07/28 09:45:31;;;;;;;3.13;1.15;;;;;;;21.31;66.20;101935.88;2615150;36;20034;-51
2022/07/28 09:48:13;;;;;;;1.80;0.98;;;;;;;21.72;68.09;101942.16;2615390;36;20070;-53
2022/07/28 09:50:43;;;;;;;1.40;0.77;;;;;;;21.20;64.99;101936.31;2616606;36;20046;-53
2022/07/28 09:53:25;;;;;;;0.90;0.80;;;;;;;21.30;64.78;101934.19;2615670;36;20034;-51
2022/07/28 09:55:58;;;;;;;3.22;1.00;;;;;;;20.89;64.54;101942.63;2615125;36;20038;-51
2022/07/28 09:58:27;;;;;;;2.10;0.90;;;;;;;20.98;66.57;101941.56;2615500;36;20065;-52
2022/07/28 10:01:07;;;;;;;1.50;0.80;;;;;;;20.91;66.60;101940.56;2616022;36;20034;-48
2022/07/28 10:03:36;;;;;;;2.47;0.90;;;;;;;20.47;75.23;101944.63;2616007;36;20057;-50
2022/07/28 10:06:10;;;;;;;1.60;0.82;;;;;;;20.37;72.40;101937.66;2615232;36;20031;-51
2022/07/28 10:08:43;;;;;;;2.78;0.85;;;;;;;20.61;76.89;101934.84;2616146;31;20038;-53
2022/07/28 10:11:13;;;;;;;2.70;0.73;;;;;;;21.09;70.78;101932.06;2614783;36;20034;-50
2022/07/28 10:13:59;;;;;;;1.48;0.90;;;;;;;20.64;65.63;101930.88;2615860;31;20034;-49
2022/07/28 10:16:32;;;;;;;1.40;0.80;;;;;;;20.63;70.73;101932.78;2614475;36;20034;-56
2022/07/28 10:19:03;;;;;;;2.38;0.85;;;;;;;21.26;83.38;101931.97;2615262;36;20586;-53
2022/07/28 10:21:34;;;;;;;3.30;0.80;;;;;;;21.30;69.45;101927.84;2615351;36;20069;-55
2022/07/28 10:24:07;;;;;;;2.00;0.80;;;;;;;21.00;65.83;101933.16;2614980;36;20035;-50
2022/07/28 10:26:40;;;;;;;1.17;0.70;;;;;;;20.90;71.75;101933.38;2615591;36;20448;-51
2022/07/28 10:29:09;;;;;;;3.50;0.75;;;;;;;21.12;70.62;101931.72;2615716;36;20393;-48
2022/07/28 10:31:50;;;;;;;0.60;0.60;;;;;;;21.37;73.29;101922.50;2614903;36;20037;-49
2022/07/28 10:34:24;;;;;;;2.35;1.00;;;;;;;21.61;71.00;101916.00;2616400;36;20038;-59
2022/07/28 10:36:54;;;;;;;2.58;0.82;;;;;;;21.94;68.27;101919.34;2614950;36;20085;-52
2022/07/28 10:39:25;;;;;;;1.13;0.70;;;;;;;21.84;63.29;101916.00;2615379;36;20077;-52
2022/07/28 10:41:54;;;;;;;1.60;0.90;;;;;;;22.19;67.12;101914.44;2614977;31;20065;-49
2022/07/28 10:44:24;;;;;;;0.77;0.70;;;;;;;22.56;67.42;101907.19;2615350;36;20039;-52
2022/07/28 10:46:55;;;;;;;1.92;0.88;;;;;;;22.73;63.10;101902.38;2614148;36;20053;-58
2022/07/28 10:49:26;;;;;;;1.13;0.85;;;;;;;22.91;63.73;101915.69;2615777;36;20065;-50
2022/07/28 10:51:55;;;;;;;1.70;0.60;;;;;;;22.81;57.79;101911.53;2615462;36;20030;-51
2022/07/28 10:54:28;;;;;;;1.25;0.70;;;;;;;22.54;60.54;101911.16;2615317;36;20089;-51
2022/07/28 10:56:59;;;;;;;1.30;0.75;;;;;;;22.75;61.49;101915.91;2615261;36;20031;-57
2022/07/28 11:00:00;;;;;;;1.95;0.80;;;;;;;22.79;61.68;101900.75;2614471;31;20922;-51
2022/07/28 11:02:55;;;;;;;3.28;0.80;;;;;;;22.57;57.83;101897.09;2614737;36;20202;-54
2022/07/28 11:05:28;;;;;;;1.52;0.70;;;;;;;22.65;59.87;101893.38;2616098;36;20400;-50
2022/07/28 11:07:57;;;;;;;0.63;0.60;;;;;;;22.49;60.42;101895.28;2615814;36;20038;-54
2022/07/28 11:10:25;;;;;;;1.20;0.95;;;;;;;22.54;59.03;101895.56;2615492;36;20074;-54
2022/07/28 11:12:55;;;;;;;1.00;0.63;;;;;;;22.84;61.51;101894.69;2614499;36;20054;-51
2022/07/28 11:15:38;;;;;;;1.00;0.70;;;;;;;24.03;61.54;101887.84;2615494;36;20067;-52
2022/07/28 11:18:11;;;;;;;1.02;0.70;;;;;;;24.37;57.02;101880.66;2614510;36;20034;-57
2022/07/28 11:21:09;;;;;;;2.25;0.90;;;;;;;23.71;54.71;101876.38;2615041;36;20478;-52
2022/07/28 11:23:55;;;;;;;3.25;0.70;;;;;;;24.19;54.21;101879.28;2616092;36;20429;-50
2022/07/28 11:26:37;;;;;;;2.20;0.73;;;;;;;24.33;59.29;101874.72;2615619;31;20062;-53
2022/07/28 11:29:19;;;;;;;1.10;0.70;;;;;;;24.12;53.77;101884.75;2615490;31;20042;-55
2022/07/28 11:32:03;;;;;;;2.25;0.70;;;;;;;23.85;56.25;101875.44;2615021;36;20041;-54
2022/07/28 11:35:01;;;;;;;1.20;0.80;;;;;;;24.03;56.37;101874.09;2615261;36;20089;-47
2022/07/28 11:37:32;;;;;;;3.25;0.90;;;;;;;23.39;53.63;101873.13;2615016;36;20046;-54
2022/07/28 11:40:30;;;;;;;2.00;0.80;;;;;;;22.99;53.42;101872.69;2615496;36;20038;-54